createdAt,value
2017-07-27T00:00:25.953Z,0
2017-07-27T00:01:21.417Z,0
2017-07-27T00:02:20.808Z,0
2017-07-27T00:03:21.101Z,0
2017-07-27T00:04:21.116Z,0
2017-07-27T00:05:22.274Z,0
2017-07-27T00:06:21.452Z,0
2017-07-27T00:07:21.426Z,0
2017-07-27T00:08:21.122Z,0
2017-07-27T00:09:21.112Z,0
2017-07-27T00:10:22.719Z,0
2017-07-27T00:11:21.426Z,0
2017-07-27T00:12:20.816Z,0
2017-07-27T00:13:20.815Z,0
2017-07-27T00:14:21.119Z,0
2017-07-27T00:15:22.532Z,0
2017-07-27T00:16:21.105Z,0
2017-07-27T00:17:21.419Z,0
2017-07-27T00:18:21.422Z,0
2017-07-27T00:19:21.416Z,0
2017-07-27T00:20:22.916Z,0
2017-07-27T00:21:21.422Z,0
2017-07-27T00:22:21.118Z,0
2017-07-27T00:23:21.434Z,0
2017-07-27T00:24:21.130Z,0
2017-07-27T00:25:22.832Z,0
2017-07-27T00:26:21.433Z,0
2017-07-27T00:27:20.819Z,0
2017-07-27T00:28:21.127Z,0
2017-07-27T00:29:21.420Z,0
2017-07-27T00:30:26.285Z,0
2017-07-27T00:31:21.442Z,0
2017-07-27T00:32:21.428Z,0
2017-07-27T00:33:21.121Z,0
2017-07-27T00:34:20.824Z,0
2017-07-27T00:35:23.079Z,0
2017-07-27T00:36:21.122Z,0
2017-07-27T00:37:21.422Z,0
2017-07-27T00:38:21.144Z,0
2017-07-27T00:39:21.137Z,0
2017-07-27T00:40:22.052Z,0
2017-07-27T00:41:20.837Z,0
2017-07-27T00:42:21.124Z,0
2017-07-27T00:43:21.433Z,0
2017-07-27T00:44:20.826Z,0
2017-07-27T00:45:22.559Z,0
2017-07-27T00:46:21.125Z,0
2017-07-27T00:47:21.437Z,0
2017-07-27T00:48:21.130Z,0
2017-07-27T00:49:20.834Z,0
2017-07-27T00:50:22.406Z,0
2017-07-27T00:51:21.139Z,0
2017-07-27T00:52:20.832Z,0
2017-07-27T00:53:20.832Z,0
2017-07-27T00:54:20.832Z,0
2017-07-27T00:55:22.751Z,0
2017-07-27T00:56:21.446Z,0
2017-07-27T00:57:21.136Z,0
2017-07-27T00:58:20.831Z,0
2017-07-27T00:59:21.437Z,0
2017-07-27T01:00:22.923Z,0
2017-07-27T01:01:23.257Z,0
2017-07-27T01:02:20.843Z,0
2017-07-27T01:03:21.144Z,0
2017-07-27T01:04:20.529Z,0
2017-07-27T01:05:22.451Z,0
2017-07-27T01:06:21.140Z,0
2017-07-27T01:07:21.147Z,0
2017-07-27T01:08:21.146Z,0
2017-07-27T01:09:21.142Z,0
2017-07-27T01:10:22.313Z,0
2017-07-27T01:11:21.458Z,0
2017-07-27T01:12:20.842Z,0
2017-07-27T01:13:21.456Z,0
2017-07-27T01:14:20.857Z,0
2017-07-27T01:15:22.655Z,0
2017-07-27T01:16:21.571Z,0
2017-07-27T01:17:21.466Z,0
2017-07-27T01:18:21.159Z,0
2017-07-27T01:19:21.468Z,0
2017-07-27T01:20:22.093Z,0
2017-07-27T01:21:21.463Z,0
2017-07-27T01:22:21.468Z,0
2017-07-27T01:23:21.162Z,0
2017-07-27T01:24:20.883Z,0
2017-07-27T01:25:22.162Z,0
2017-07-27T01:26:20.898Z,0
2017-07-27T01:27:21.167Z,0
2017-07-27T01:28:21.466Z,0
2017-07-27T01:29:21.472Z,0
2017-07-27T01:30:22.802Z,0
2017-07-27T01:31:21.513Z,0
2017-07-27T01:32:21.478Z,0
2017-07-27T01:33:21.471Z,0
2017-07-27T01:34:21.479Z,0
2017-07-27T01:35:22.382Z,0
2017-07-27T01:36:21.477Z,0
2017-07-27T01:37:21.469Z,0
2017-07-27T01:38:21.175Z,0
2017-07-27T01:39:20.881Z,0
2017-07-27T01:40:22.261Z,0
2017-07-27T01:41:21.482Z,0
2017-07-27T01:42:21.488Z,0
2017-07-27T01:43:21.486Z,0
2017-07-27T01:44:21.182Z,0
2017-07-27T01:45:22.640Z,0
2017-07-27T01:46:23.934Z,0
2017-07-27T01:47:21.483Z,0
2017-07-27T01:48:21.185Z,0
2017-07-27T01:49:21.481Z,0
2017-07-27T01:50:23.050Z,0
2017-07-27T01:51:21.182Z,0
2017-07-27T01:52:21.181Z,0
2017-07-27T01:53:21.194Z,0
2017-07-27T01:54:21.514Z,0
2017-07-27T01:55:22.352Z,0
2017-07-27T01:56:21.561Z,0
2017-07-27T01:57:20.886Z,0
2017-07-27T01:58:21.501Z,0
2017-07-27T01:59:21.491Z,0
2017-07-27T02:00:22.953Z,0
2017-07-27T02:01:20.971Z,0
2017-07-27T02:02:21.194Z,0
2017-07-27T02:03:21.498Z,0
2017-07-27T02:04:20.901Z,0
2017-07-27T02:05:22.562Z,0
2017-07-27T02:06:21.502Z,0
2017-07-27T02:07:21.195Z,0
2017-07-27T02:08:21.503Z,0
2017-07-27T02:09:21.500Z,0
2017-07-27T02:10:22.321Z,0
2017-07-27T02:11:21.509Z,0
2017-07-27T02:12:21.216Z,0
2017-07-27T02:13:21.506Z,0
2017-07-27T02:14:20.922Z,0
2017-07-27T02:15:22.605Z,0
2017-07-27T02:16:21.564Z,0
2017-07-27T02:17:21.217Z,0
2017-07-27T02:18:21.507Z,0
2017-07-27T02:19:21.510Z,0
2017-07-27T02:20:22.529Z,0
2017-07-27T02:21:21.512Z,0
2017-07-27T02:22:21.515Z,0
2017-07-27T02:23:21.513Z,0
2017-07-27T02:24:21.514Z,0
2017-07-27T02:25:22.492Z,0
2017-07-27T02:26:21.517Z,0
2017-07-27T02:27:21.225Z,0
2017-07-27T02:28:21.232Z,0
2017-07-27T02:29:21.220Z,0
2017-07-27T02:30:22.308Z,0
2017-07-27T02:31:21.276Z,0
2017-07-27T02:32:21.233Z,0
2017-07-27T02:33:21.223Z,0
2017-07-27T02:34:21.271Z,0
2017-07-27T02:35:22.009Z,0
2017-07-27T02:36:21.554Z,0
2017-07-27T02:37:21.233Z,0
2017-07-27T02:38:21.545Z,0
2017-07-27T02:39:20.937Z,0
2017-07-27T02:40:22.968Z,0
2017-07-27T02:41:20.935Z,0
2017-07-27T02:42:21.239Z,0
2017-07-27T02:43:21.534Z,0
2017-07-27T02:44:21.538Z,0
2017-07-27T02:45:23.073Z,0
2017-07-27T02:46:21.639Z,0
2017-07-27T02:47:21.255Z,0
2017-07-27T02:48:21.537Z,0
2017-07-27T02:49:21.546Z,0
2017-07-27T02:50:21.835Z,0
2017-07-27T02:51:21.546Z,0
2017-07-27T02:52:21.559Z,0
2017-07-27T02:53:21.238Z,0
2017-07-27T02:54:21.541Z,0
2017-07-27T02:55:23.202Z,0
2017-07-27T02:56:21.540Z,0
2017-07-27T02:57:21.548Z,0
2017-07-27T02:58:21.250Z,0
2017-07-27T02:59:21.547Z,0
2017-07-27T03:00:22.229Z,0
2017-07-27T03:01:21.595Z,0
2017-07-27T03:02:21.547Z,0
2017-07-27T03:03:21.562Z,0
2017-07-27T03:04:21.549Z,0
2017-07-27T03:05:23.224Z,0
2017-07-27T03:06:20.949Z,0
2017-07-27T03:07:21.255Z,0
2017-07-27T03:08:21.549Z,0
2017-07-27T03:09:21.551Z,0
2017-07-27T03:10:22.336Z,0
2017-07-27T03:11:21.248Z,0
2017-07-27T03:12:21.262Z,0
2017-07-27T03:13:21.633Z,0
2017-07-27T03:14:21.552Z,0
2017-07-27T03:15:22.489Z,0
2017-07-27T03:16:22.310Z,0
2017-07-27T03:17:21.554Z,0
2017-07-27T03:18:21.563Z,0
2017-07-27T03:19:21.558Z,0
2017-07-27T03:20:22.750Z,0
2017-07-27T03:21:21.264Z,0
2017-07-27T03:22:21.277Z,0
2017-07-27T03:23:21.565Z,0
2017-07-27T03:24:21.259Z,0
2017-07-27T03:25:23.172Z,0
2017-07-27T03:26:21.282Z,0
2017-07-27T03:27:21.567Z,0
2017-07-27T03:28:21.565Z,0
2017-07-27T03:29:21.271Z,0
2017-07-27T03:30:22.729Z,0
2017-07-27T03:31:21.630Z,0
2017-07-27T03:32:21.268Z,0
2017-07-27T03:33:21.573Z,0
2017-07-27T03:34:21.569Z,0
2017-07-27T03:35:23.298Z,0
2017-07-27T03:36:21.576Z,0
2017-07-27T03:37:21.307Z,0
2017-07-27T03:38:21.574Z,0
2017-07-27T03:39:20.980Z,0
2017-07-27T03:40:22.960Z,0
2017-07-27T03:41:21.579Z,0
2017-07-27T03:42:21.288Z,0
2017-07-27T03:43:21.577Z,0
2017-07-27T03:44:21.279Z,0
2017-07-27T03:45:22.693Z,0
2017-07-27T03:46:25.491Z,0
2017-07-27T03:47:21.312Z,0
2017-07-27T03:48:21.400Z,0
2017-07-27T03:49:21.303Z,0
2017-07-27T03:50:23.109Z,0
2017-07-27T03:51:20.997Z,0
2017-07-27T03:52:21.297Z,0
2017-07-27T03:53:21.292Z,0
2017-07-27T03:54:21.589Z,0
2017-07-27T03:55:22.617Z,0
2017-07-27T03:56:21.292Z,0
2017-07-27T03:57:21.590Z,0
2017-07-27T03:58:21.595Z,0
2017-07-27T03:59:21.308Z,0
2017-07-27T04:00:22.926Z,0
2017-07-27T04:01:21.308Z,0
2017-07-27T04:02:21.354Z,0
2017-07-27T04:03:21.593Z,0
2017-07-27T04:04:21.595Z,0
2017-07-27T04:05:21.727Z,0
2017-07-27T04:06:21.608Z,0
2017-07-27T04:07:21.008Z,0
2017-07-27T04:08:21.594Z,0
2017-07-27T04:09:21.311Z,0
2017-07-27T04:10:22.268Z,5
2017-07-27T04:11:21.603Z,5
2017-07-27T04:12:21.598Z,5
2017-07-27T04:13:21.601Z,5
2017-07-27T04:14:21.600Z,5
2017-07-27T04:15:23.071Z,5
2017-07-27T04:16:21.008Z,5
2017-07-27T04:17:23.259Z,5
2017-07-27T04:18:21.602Z,5
2017-07-27T04:19:21.599Z,10
2017-07-27T04:20:22.201Z,10
2017-07-27T04:21:21.302Z,10
2017-07-27T04:22:20.996Z,10
2017-07-27T04:23:21.605Z,10
2017-07-27T04:24:21.611Z,10
2017-07-27T04:25:22.077Z,15
2017-07-27T04:26:21.606Z,15
2017-07-27T04:27:21.610Z,15
2017-07-27T04:28:21.601Z,15
2017-07-27T04:29:21.613Z,15
2017-07-27T04:30:22.077Z,15
2017-07-27T04:31:21.660Z,15
2017-07-27T04:32:21.731Z,15
2017-07-27T04:33:21.319Z,15
2017-07-27T04:34:21.319Z,15
2017-07-27T04:35:22.083Z,15
2017-07-27T04:36:21.614Z,15
2017-07-27T04:37:23.220Z,15
2017-07-27T04:38:21.618Z,15
2017-07-27T04:39:21.620Z,15
2017-07-27T04:40:22.817Z,15
2017-07-27T04:41:21.617Z,15
2017-07-27T04:42:21.337Z,15
2017-07-27T04:43:21.614Z,15
2017-07-27T04:44:21.636Z,15
2017-07-27T04:45:22.629Z,20
2017-07-27T04:46:21.630Z,20
2017-07-27T04:47:23.682Z,20
2017-07-27T04:48:21.635Z,20
2017-07-27T04:49:21.622Z,20
2017-07-27T04:50:22.063Z,25
2017-07-27T04:51:21.639Z,25
2017-07-27T04:52:21.633Z,25
2017-07-27T04:53:21.330Z,30
2017-07-27T04:54:21.327Z,30
2017-07-27T04:55:22.403Z,30
2017-07-27T04:56:21.627Z,30
2017-07-27T04:57:21.058Z,35
2017-07-27T04:58:21.633Z,35
2017-07-27T04:59:21.646Z,35
2017-07-27T05:00:22.230Z,40
2017-07-27T05:01:21.341Z,40
2017-07-27T05:02:21.386Z,45
2017-07-27T05:03:21.333Z,45
2017-07-27T05:04:21.649Z,45
2017-07-27T05:05:22.112Z,45
2017-07-27T05:06:21.062Z,40
2017-07-27T05:07:21.353Z,40
2017-07-27T05:08:21.347Z,40
2017-07-27T05:09:21.347Z,40
2017-07-27T05:10:22.617Z,40
2017-07-27T05:11:21.643Z,40
2017-07-27T05:12:21.054Z,40
2017-07-27T05:13:21.653Z,40
2017-07-27T05:14:21.056Z,40
2017-07-27T05:15:22.375Z,40
2017-07-27T05:16:21.359Z,40
2017-07-27T05:17:22.059Z,40
2017-07-27T05:18:21.372Z,45
2017-07-27T05:19:21.354Z,45
2017-07-27T05:20:22.488Z,45
2017-07-27T05:21:21.660Z,45
2017-07-27T05:22:21.370Z,45
2017-07-27T05:23:21.376Z,45
2017-07-27T05:24:21.670Z,45
2017-07-27T05:25:22.354Z,45
2017-07-27T05:26:21.665Z,45
2017-07-27T05:27:21.378Z,45
2017-07-27T05:28:21.366Z,45
2017-07-27T05:29:21.685Z,45
2017-07-27T05:30:23.002Z,45
2017-07-27T05:31:21.676Z,45
2017-07-27T05:32:21.682Z,45
2017-07-27T05:33:21.156Z,45
2017-07-27T05:34:21.380Z,45
2017-07-27T05:35:22.552Z,45
2017-07-27T05:36:21.389Z,50
2017-07-27T05:37:21.703Z,45
2017-07-27T05:38:21.683Z,45
2017-07-27T05:39:21.087Z,45
2017-07-27T05:40:22.654Z,40
2017-07-27T05:41:21.395Z,40
2017-07-27T05:42:21.690Z,35
2017-07-27T05:43:21.700Z,35
2017-07-27T05:44:21.689Z,35
2017-07-27T05:45:22.794Z,35
2017-07-27T05:46:21.396Z,35
2017-07-27T05:47:21.707Z,35
2017-07-27T05:48:22.496Z,35
2017-07-27T05:49:21.703Z,35
2017-07-27T05:50:22.412Z,35
2017-07-27T05:51:21.708Z,35
2017-07-27T05:52:21.415Z,35
2017-07-27T05:53:21.715Z,35
2017-07-27T05:54:21.708Z,35
2017-07-27T05:55:22.945Z,35
2017-07-27T05:56:21.706Z,35
2017-07-27T05:57:21.716Z,35
2017-07-27T05:58:21.725Z,35
2017-07-27T05:59:21.712Z,35
2017-07-27T06:00:22.445Z,40
2017-07-27T06:01:21.728Z,40
2017-07-27T06:02:21.731Z,45
2017-07-27T06:03:21.195Z,45
2017-07-27T06:04:21.130Z,50
2017-07-27T06:05:22.178Z,50
2017-07-27T06:06:21.432Z,50
2017-07-27T06:07:21.761Z,50
2017-07-27T06:08:21.428Z,45
2017-07-27T06:09:21.434Z,50
2017-07-27T06:10:22.735Z,50
2017-07-27T06:11:21.737Z,50
2017-07-27T06:12:21.436Z,55
2017-07-27T06:13:21.741Z,60
2017-07-27T06:14:21.739Z,60
2017-07-27T06:15:22.498Z,60
2017-07-27T06:16:21.432Z,60
2017-07-27T06:17:21.739Z,60
2017-07-27T06:18:22.750Z,60
2017-07-27T06:19:21.741Z,65
2017-07-27T06:20:22.525Z,60
2017-07-27T06:21:21.455Z,60
2017-07-27T06:22:21.746Z,60
2017-07-27T06:23:21.456Z,60
2017-07-27T06:24:21.747Z,60
2017-07-27T06:25:22.071Z,60
2017-07-27T06:26:21.447Z,60
2017-07-27T06:27:21.757Z,60
2017-07-27T06:28:21.484Z,60
2017-07-27T06:29:21.757Z,60
2017-07-27T06:30:22.684Z,65
2017-07-27T06:31:21.760Z,70
2017-07-27T06:32:21.488Z,80
2017-07-27T06:33:23.565Z,85
2017-07-27T06:34:21.472Z,95
2017-07-27T06:35:22.700Z,100
2017-07-27T06:36:21.179Z,105
2017-07-27T06:37:21.781Z,115
2017-07-27T06:38:21.772Z,115
2017-07-27T06:39:21.507Z,120
2017-07-27T06:40:22.946Z,130
2017-07-27T06:41:21.185Z,135
2017-07-27T06:42:21.791Z,145
2017-07-27T06:43:21.799Z,145
2017-07-27T06:44:21.505Z,145
2017-07-27T06:45:22.967Z,140
2017-07-27T06:46:22.635Z,135
2017-07-27T06:47:21.861Z,135
2017-07-27T06:48:22.201Z,135
2017-07-27T06:49:21.804Z,120
2017-07-27T06:50:21.857Z,110
2017-07-27T06:51:21.510Z,100
2017-07-27T06:52:21.499Z,100
2017-07-27T06:53:21.510Z,90
2017-07-27T06:54:21.798Z,90
2017-07-27T06:55:22.668Z,85
2017-07-27T06:56:21.809Z,75
2017-07-27T06:57:21.822Z,70
2017-07-27T06:58:21.505Z,65
2017-07-27T06:59:21.214Z,65
2017-07-27T07:00:22.770Z,60
2017-07-27T07:01:21.821Z,60
2017-07-27T07:02:21.220Z,65
2017-07-27T07:03:21.819Z,65
2017-07-27T07:04:21.826Z,70
2017-07-27T07:05:22.006Z,70
2017-07-27T07:06:21.834Z,70
2017-07-27T07:07:21.825Z,70
2017-07-27T07:08:21.526Z,80
2017-07-27T07:09:21.530Z,80
2017-07-27T07:10:22.591Z,80
2017-07-27T07:11:21.833Z,90
2017-07-27T07:12:21.845Z,80
2017-07-27T07:13:21.841Z,80
2017-07-27T07:14:21.839Z,80
2017-07-27T07:15:22.761Z,80
2017-07-27T07:16:21.565Z,85
2017-07-27T07:17:21.847Z,95
2017-07-27T07:18:22.463Z,110
2017-07-27T07:19:21.853Z,120
2017-07-27T07:20:22.983Z,130
2017-07-27T07:21:21.255Z,135
2017-07-27T07:22:21.280Z,130
2017-07-27T07:23:21.573Z,120
2017-07-27T07:24:21.872Z,105
2017-07-27T07:25:21.920Z,100
2017-07-27T07:26:21.588Z,95
2017-07-27T07:27:21.873Z,90
2017-07-27T07:28:21.875Z,95
2017-07-27T07:29:21.579Z,95
2017-07-27T07:30:22.509Z,100
2017-07-27T07:31:21.600Z,100
2017-07-27T07:32:21.606Z,105
2017-07-27T07:33:21.577Z,100
2017-07-27T07:34:21.629Z,95
2017-07-27T07:35:23.113Z,95
2017-07-27T07:36:21.588Z,95
2017-07-27T07:37:21.891Z,95
2017-07-27T07:38:21.308Z,100
2017-07-27T07:39:21.900Z,105
2017-07-27T07:40:22.625Z,110
2017-07-27T07:41:21.897Z,115
2017-07-27T07:42:21.308Z,115
2017-07-27T07:43:21.900Z,115
2017-07-27T07:44:21.903Z,115
2017-07-27T07:45:23.001Z,115
2017-07-27T07:46:21.606Z,115
2017-07-27T07:47:21.912Z,115
2017-07-27T07:48:21.612Z,115
2017-07-27T07:49:26.180Z,105
2017-07-27T07:50:22.381Z,95
2017-07-27T07:51:21.916Z,95
2017-07-27T07:52:21.320Z,100
2017-07-27T07:53:21.633Z,100
2017-07-27T07:54:21.934Z,100
2017-07-27T07:55:22.529Z,100
2017-07-27T07:56:21.646Z,100
2017-07-27T07:57:21.644Z,105
2017-07-27T07:58:21.945Z,105
2017-07-27T07:59:21.642Z,105
2017-07-27T08:00:22.557Z,110
2017-07-27T08:01:21.653Z,115
2017-07-27T08:02:21.650Z,125
2017-07-27T08:03:21.661Z,135
2017-07-27T08:04:22.149Z,145
2017-07-27T08:05:22.228Z,145
2017-07-27T08:06:21.675Z,135
2017-07-27T08:07:21.956Z,120
2017-07-27T08:08:21.661Z,110
2017-07-27T08:09:21.671Z,100
2017-07-27T08:10:22.018Z,95
2017-07-27T08:11:21.362Z,100
2017-07-27T08:12:21.668Z,115
2017-07-27T08:13:21.984Z,130
2017-07-27T08:14:21.979Z,150
2017-07-27T08:15:22.295Z,175
2017-07-27T08:16:21.989Z,195
2017-07-27T08:17:21.695Z,205
2017-07-27T08:18:22.005Z,205
2017-07-27T08:19:23.284Z,195
2017-07-27T08:20:22.594Z,185
2017-07-27T08:21:21.688Z,185
2017-07-27T08:22:21.701Z,190
2017-07-27T08:23:22.004Z,190
2017-07-27T08:24:21.710Z,185
2017-07-27T08:25:22.511Z,175
2017-07-27T08:26:22.009Z,165
2017-07-27T08:27:22.016Z,170
2017-07-27T08:28:22.036Z,170
2017-07-27T08:29:22.067Z,170
2017-07-27T08:30:23.172Z,170
2017-07-27T08:31:22.028Z,170
2017-07-27T08:32:22.055Z,165
2017-07-27T08:33:22.083Z,160
2017-07-27T08:34:21.759Z,150
2017-07-27T08:35:24.099Z,145
2017-07-27T08:36:22.041Z,140
2017-07-27T08:37:21.470Z,145
2017-07-27T08:38:21.762Z,155
2017-07-27T08:39:22.072Z,160
2017-07-27T08:40:22.966Z,170
2017-07-27T08:41:22.073Z,180
2017-07-27T08:42:21.772Z,195
2017-07-27T08:43:22.068Z,195
2017-07-27T08:44:22.064Z,205
2017-07-27T08:45:22.409Z,230
2017-07-27T08:46:22.111Z,250
2017-07-27T08:47:22.079Z,255
2017-07-27T08:48:22.088Z,260
2017-07-27T08:49:22.078Z,260
2017-07-27T08:50:25.089Z,250
2017-07-27T08:51:22.097Z,255
2017-07-27T08:52:22.105Z,265
2017-07-27T08:53:21.505Z,280
2017-07-27T08:54:22.151Z,280
2017-07-27T08:55:22.855Z,285
2017-07-27T08:56:21.817Z,270
2017-07-27T08:57:22.149Z,255
2017-07-27T08:58:21.822Z,255
2017-07-27T08:59:21.821Z,265
2017-07-27T09:00:22.569Z,275
2017-07-27T09:01:21.838Z,290
2017-07-27T09:02:22.151Z,315
2017-07-27T09:03:21.538Z,325
2017-07-27T09:04:21.853Z,325
2017-07-27T09:05:25.457Z,315
2017-07-27T09:06:22.153Z,315
2017-07-27T09:07:22.154Z,320
2017-07-27T09:08:21.854Z,310
2017-07-27T09:09:21.858Z,315
2017-07-27T09:10:22.519Z,310
2017-07-27T09:11:21.895Z,320
2017-07-27T09:12:22.178Z,310
2017-07-27T09:13:23.781Z,295
2017-07-27T09:14:25.536Z,285
2017-07-27T09:15:22.768Z,275
2017-07-27T09:16:21.927Z,265
2017-07-27T09:17:22.216Z,260
2017-07-27T09:18:21.601Z,280
2017-07-27T09:19:21.938Z,290
2017-07-27T09:20:26.563Z,300
2017-07-27T09:21:21.920Z,295
2017-07-27T09:22:21.921Z,305
2017-07-27T09:23:22.239Z,315
2017-07-27T09:24:21.938Z,320
2017-07-27T09:25:22.856Z,320
2017-07-27T09:26:21.938Z,325
2017-07-27T09:27:21.946Z,350
2017-07-27T09:28:22.268Z,370
2017-07-27T09:29:21.963Z,385
2017-07-27T09:30:21.974Z,395
2017-07-27T09:31:21.960Z,400
2017-07-27T09:32:22.275Z,395
2017-07-27T09:33:22.279Z,395
2017-07-27T09:34:21.695Z,410
2017-07-27T09:35:22.353Z,410
2017-07-27T09:36:22.041Z,405
2017-07-27T09:37:22.292Z,390
2017-07-27T09:38:22.292Z,370
2017-07-27T09:39:21.698Z,355
2017-07-27T09:40:22.981Z,350
2017-07-27T09:41:22.328Z,340
2017-07-27T09:42:22.332Z,315
2017-07-27T09:43:22.335Z,300
2017-07-27T09:44:22.044Z,275
2017-07-27T09:45:23.370Z,255
2017-07-27T09:46:22.047Z,235
2017-07-27T09:47:21.753Z,215
2017-07-27T09:48:22.349Z,205
2017-07-27T09:49:22.049Z,185
2017-07-27T09:50:23.272Z,170
2017-07-27T09:51:22.629Z,165
2017-07-27T09:52:22.079Z,160
2017-07-27T09:53:22.371Z,160
2017-07-27T09:54:22.403Z,165
2017-07-27T09:55:22.766Z,170
2017-07-27T09:56:22.392Z,175
2017-07-27T09:57:22.409Z,180
2017-07-27T09:58:22.119Z,195
2017-07-27T09:59:22.104Z,215
2017-07-27T10:00:23.558Z,225
2017-07-27T10:01:22.699Z,225
2017-07-27T10:02:21.861Z,215
2017-07-27T10:03:22.688Z,215
2017-07-27T10:04:23.740Z,230
2017-07-27T10:05:24.718Z,255
2017-07-27T10:06:25.000Z,275
2017-07-27T10:07:24.962Z,290
2017-07-27T10:08:22.963Z,295
2017-07-27T10:09:22.129Z,300
2017-07-27T10:10:24.245Z,295
2017-07-27T10:11:23.063Z,280
2017-07-27T10:12:22.565Z,265
2017-07-27T10:13:22.472Z,250
2017-07-27T10:14:22.471Z,230
2017-07-27T10:15:23.062Z,215
2017-07-27T10:16:22.483Z,210
2017-07-27T10:17:21.885Z,215
2017-07-27T10:18:21.884Z,220
2017-07-27T10:19:22.194Z,235
2017-07-27T10:20:22.927Z,260
2017-07-27T10:21:24.552Z,270
2017-07-27T10:22:21.918Z,280
2017-07-27T10:23:22.550Z,285
2017-07-27T10:24:22.208Z,290
2017-07-27T10:25:23.184Z,290
2017-07-27T10:26:22.520Z,290
2017-07-27T10:27:22.224Z,290
2017-07-27T10:28:22.521Z,305
2017-07-27T10:29:22.235Z,325
2017-07-27T10:30:23.245Z,340
2017-07-27T10:31:21.952Z,355
2017-07-27T10:32:22.555Z,355
2017-07-27T10:33:21.955Z,365
2017-07-27T10:34:22.563Z,365
2017-07-27T10:35:22.698Z,360
2017-07-27T10:36:22.618Z,355
2017-07-27T10:37:22.576Z,355
2017-07-27T10:38:22.269Z,355
2017-07-27T10:39:22.574Z,355
2017-07-27T10:40:22.984Z,350
2017-07-27T10:41:22.596Z,340
2017-07-27T10:42:22.613Z,340
2017-07-27T10:43:22.299Z,355
2017-07-27T10:44:22.301Z,360
2017-07-27T10:45:23.024Z,370
2017-07-27T10:46:22.310Z,380
2017-07-27T10:47:22.314Z,390
2017-07-27T10:48:22.620Z,390
2017-07-27T10:49:22.335Z,390
2017-07-27T10:50:22.797Z,395
2017-07-27T10:51:25.140Z,395
2017-07-27T10:52:22.638Z,400
2017-07-27T10:53:22.658Z,395
2017-07-27T10:54:22.346Z,395
2017-07-27T10:55:23.706Z,380
2017-07-27T10:56:22.371Z,370
2017-07-27T10:57:22.662Z,370
2017-07-27T10:58:22.070Z,375
2017-07-27T10:59:22.684Z,380
2017-07-27T11:00:23.258Z,375
2017-07-27T11:01:22.690Z,375
2017-07-27T11:02:22.695Z,370
2017-07-27T11:03:22.396Z,375
2017-07-27T11:04:22.103Z,380
2017-07-27T11:05:22.561Z,380
2017-07-27T11:06:22.462Z,400
2017-07-27T11:07:22.723Z,430
2017-07-27T11:08:21.832Z,470
2017-07-27T11:09:22.743Z,500
2017-07-27T11:10:23.664Z,470
2017-07-27T11:11:22.773Z,465
2017-07-27T11:12:22.757Z,435
2017-07-27T11:13:22.775Z,405
2017-07-27T11:14:22.468Z,395
2017-07-27T11:15:23.716Z,380
2017-07-27T11:16:22.798Z,365
2017-07-27T11:17:22.805Z,360
2017-07-27T11:18:22.194Z,350
2017-07-27T11:19:22.215Z,345
2017-07-27T11:20:22.630Z,340
2017-07-27T11:21:26.755Z,335
2017-07-27T11:22:22.831Z,315
2017-07-27T11:23:22.837Z,320
2017-07-27T11:24:22.825Z,305
2017-07-27T11:25:23.124Z,300
2017-07-27T11:26:22.536Z,295
2017-07-27T11:27:22.863Z,285
2017-07-27T11:28:22.554Z,290
2017-07-27T11:29:22.876Z,295
2017-07-27T11:30:23.021Z,305
2017-07-27T11:31:22.879Z,300
2017-07-27T11:32:22.588Z,310
2017-07-27T11:33:22.875Z,350
2017-07-27T11:34:22.882Z,380
2017-07-27T11:35:22.959Z,385
2017-07-27T11:36:22.589Z,380
2017-07-27T11:37:22.301Z,370
2017-07-27T11:38:22.595Z,370
2017-07-27T11:39:22.944Z,360
2017-07-27T11:40:23.948Z,335
2017-07-27T11:41:22.919Z,340
2017-07-27T11:42:22.630Z,360
2017-07-27T11:43:22.953Z,340
2017-07-27T11:44:22.956Z,340
2017-07-27T11:45:23.892Z,355
2017-07-27T11:46:22.955Z,355
2017-07-27T11:47:22.649Z,365
2017-07-27T11:48:22.963Z,365
2017-07-27T11:49:22.974Z,355
2017-07-27T11:50:23.183Z,360
2017-07-27T11:51:22.974Z,375
2017-07-27T11:52:23.400Z,390
2017-07-27T11:53:23.000Z,385
2017-07-27T11:54:23.008Z,380
2017-07-27T11:55:23.219Z,375
2017-07-27T11:56:23.016Z,375
2017-07-27T11:57:23.014Z,365
2017-07-27T11:58:22.729Z,350
2017-07-27T11:59:22.476Z,365
2017-07-27T12:00:24.311Z,385
2017-07-27T12:01:26.758Z,345
2017-07-27T12:02:28.493Z,310
2017-07-27T12:03:27.326Z,315
2017-07-27T12:04:23.078Z,330
2017-07-27T12:05:23.868Z,335
2017-07-27T12:06:23.080Z,325
2017-07-27T12:07:24.721Z,320
2017-07-27T12:08:22.784Z,305
2017-07-27T12:09:22.779Z,290
2017-07-27T12:10:22.956Z,285
2017-07-27T12:11:23.113Z,295
2017-07-27T12:12:22.489Z,280
2017-07-27T12:13:23.100Z,280
2017-07-27T12:14:22.825Z,285
2017-07-27T12:15:23.965Z,285
2017-07-27T12:16:23.124Z,295
2017-07-27T12:17:23.131Z,295
2017-07-27T12:18:22.835Z,305
2017-07-27T12:19:22.849Z,340
2017-07-27T12:20:23.431Z,370
2017-07-27T12:21:23.184Z,375
2017-07-27T12:22:23.756Z,385
2017-07-27T12:23:22.894Z,395
2017-07-27T12:24:23.162Z,390
2017-07-27T12:25:23.673Z,370
2017-07-27T12:26:23.166Z,360
2017-07-27T12:27:22.888Z,370
2017-07-27T12:28:22.580Z,345
2017-07-27T12:29:23.212Z,325
2017-07-27T12:30:23.959Z,290
2017-07-27T12:31:22.920Z,280
2017-07-27T12:32:22.608Z,290
2017-07-27T12:33:23.214Z,310
2017-07-27T12:34:23.222Z,320
2017-07-27T12:35:23.658Z,330
2017-07-27T12:36:23.236Z,320
2017-07-27T12:37:22.699Z,305
2017-07-27T12:38:23.786Z,270
2017-07-27T12:39:22.758Z,245
2017-07-27T12:40:23.641Z,220
2017-07-27T12:41:23.768Z,205
2017-07-27T12:42:22.668Z,190
2017-07-27T12:43:23.270Z,180
2017-07-27T12:44:23.272Z,170
2017-07-27T12:45:23.397Z,160
2017-07-27T12:46:22.690Z,150
2017-07-27T12:47:23.293Z,155
2017-07-27T12:48:23.307Z,155
2017-07-27T12:49:23.306Z,155
2017-07-27T12:50:23.728Z,155
2017-07-27T12:51:23.010Z,150
2017-07-27T12:52:25.720Z,150
2017-07-27T12:53:23.014Z,140
2017-07-27T12:54:23.028Z,145
2017-07-27T12:55:23.839Z,145
2017-07-27T12:56:22.756Z,145
2017-07-27T12:57:23.060Z,140
2017-07-27T12:58:23.352Z,135
2017-07-27T12:59:22.770Z,125
2017-07-27T13:00:23.243Z,120
2017-07-27T13:01:23.380Z,115
2017-07-27T13:02:23.409Z,110
2017-07-27T13:03:23.381Z,105
2017-07-27T13:04:23.410Z,105
2017-07-27T13:05:23.477Z,110
2017-07-27T13:06:23.383Z,130
2017-07-27T13:07:23.396Z,155
2017-07-27T13:08:23.466Z,175
2017-07-27T13:09:23.402Z,180
2017-07-27T13:10:23.629Z,180
2017-07-27T13:11:22.829Z,185
2017-07-27T13:12:23.143Z,190
2017-07-27T13:13:23.436Z,205
2017-07-27T13:14:23.133Z,220
2017-07-27T13:15:23.929Z,210
2017-07-27T13:16:23.445Z,190
2017-07-27T13:17:23.437Z,205
2017-07-27T13:18:23.456Z,235
2017-07-27T13:19:23.145Z,240
2017-07-27T13:20:23.616Z,225
2017-07-27T13:21:22.861Z,215
2017-07-27T13:22:23.171Z,210
2017-07-27T13:23:25.289Z,220
2017-07-27T13:24:23.480Z,230
2017-07-27T13:25:23.400Z,215
2017-07-27T13:26:23.485Z,185
2017-07-27T13:27:23.188Z,165
2017-07-27T13:28:23.506Z,150
2017-07-27T13:29:23.202Z,140
2017-07-27T13:30:24.367Z,150
2017-07-27T13:31:22.624Z,175
2017-07-27T13:32:23.536Z,200
2017-07-27T13:33:23.536Z,215
2017-07-27T13:34:23.235Z,235
2017-07-27T13:35:23.982Z,260
2017-07-27T13:36:23.535Z,280
2017-07-27T13:37:23.575Z,270
2017-07-27T13:38:23.239Z,260
2017-07-27T13:39:22.949Z,250
2017-07-27T13:40:23.797Z,265
2017-07-27T13:41:23.257Z,280
2017-07-27T13:42:23.263Z,290
2017-07-27T13:43:23.569Z,280
2017-07-27T13:44:23.581Z,275
2017-07-27T13:45:23.527Z,270
2017-07-27T13:46:23.294Z,255
2017-07-27T13:47:23.009Z,250
2017-07-27T13:48:23.599Z,250
2017-07-27T13:49:23.299Z,260
2017-07-27T13:50:23.845Z,270
2017-07-27T13:51:23.414Z,295
2017-07-27T13:52:23.016Z,305
2017-07-27T13:53:26.164Z,315
2017-07-27T13:54:23.392Z,340
2017-07-27T13:55:24.607Z,360
2017-07-27T13:56:23.655Z,365
2017-07-27T13:57:23.067Z,370
2017-07-27T13:58:23.382Z,370
2017-07-27T13:59:23.699Z,360
2017-07-27T14:00:27.133Z,345
2017-07-27T14:01:27.507Z,340
2017-07-27T14:02:23.074Z,335
2017-07-27T14:03:23.677Z,340
2017-07-27T14:04:23.688Z,330
2017-07-27T14:05:23.280Z,310
2017-07-27T14:06:22.788Z,290
2017-07-27T14:07:22.790Z,250
2017-07-27T14:08:23.748Z,220
2017-07-27T14:09:23.709Z,205